Napoli, Italy

2:19 AM CEST on April 27, 2015 (GMT +0200)
Naples | | Change Station
CLOSE
Current Station
Personal Weather Station
Location: Naples, Campania
Elevation: 108 ft
Nearby Weather Stations
Active Advisory: Thunderstorms

Elev 108 ft 40.84 °N, 14.25 °E | Updated 4 minutes ago

Mostly Cloudy
Mostly Cloudy
60.9 °F
Feels Like 60.9 °F
N
0.0
Wind Variable Wind from SW
Gusts 0.0 mph

Today
High -- | Low -- °F
--% Chance of Precip.
Yesterday
High -- | Low -- °F
Precip. -- in
6:07 AM 7:54 PM
First Quarter, 60% visible
Pressure 29.92 in
Visibility 5.0 miles
Clouds Few 3000 ft
Mostly Cloudy 7000 ft
Dew Point 54 °F
Humidity 78%
Rainfall 0.00 in
Snow Depth Not available.
UV 0 out of 12
Pollen Not available.
Air Quality Not available.
Flu Activity Not available.
METAR LIRM 262355Z 00000KT 8000 FEW030 BKN070 17/15 Q1013

More Conditions Fewer Conditions

Pressure 29.92 in
Visibility 5.0 miles
Clouds Few 3000 ft
Mostly Cloudy 7000 ft
Dew Point 54 °F
Humidity 78%
Rainfall 0.00 in
Snow Depth Not available.
UV 0 out of 12
Pollen Not available.
Air Quality Not available.
Flu Activity Not available.
METAR LIRM 262355Z 00000KT 8000 FEW030 BKN070 17/15 Q1013

More Conditions Fewer Conditions

10-Day Weather Forecast

Almanac

Astronomy

Apr. 27, 2015 Rise Set
Actual Time
Civil Twilight
Nautical Twilight
Astronomical Twilight
Moon
Length of Visible Light
Length of Day
Tomorrow will be .
, % of the Moon is Illuminated

Today's Extremes

Country Highs Country Lows

Community

WunderPhotos

Upload Photos

1,817,171 photos uploaded!

WunderBlogs® & News

Nearby

Air Quality

  Air Quality AQ Index Pollutant
Not available.

Snow Depth

Station Depth Elevation

Earthquake Activity

City Distance Mag. Time & Date
Minimum magnitude displayed is 2.5.

Coastal Water Temperatures

Place Temperature

Stations

Nearby Weather Stations

Station Location Temp. Windchill Dew Point Humidity Wind Precip. Elev Updated Type